sensor_id;sensor_type;location;lat;lon;timestamp;temperature;humidity
12434;DHT22;6281;49.038;8.372;2022-09-27T00:01:42;10.40;99.90
12434;DHT22;6281;49.038;8.372;2022-09-27T00:04:15;10.30;99.90
12434;DHT22;6281;49.038;8.372;2022-09-27T00:07:03;10.40;99.90
12434;DHT22;6281;49.038;8.372;2022-09-27T00:09:37;10.40;99.90
12434;DHT22;6281;49.038;8.372;2022-09-27T00:12:09;10.40;99.90
12434;DHT22;6281;49.038;8.372;2022-09-27T00:14:48;10.30;99.90
12434;DHT22;6281;49.038;8.372;2022-09-27T00:17:34;10.40;99.90
12434;DHT22;6281;49.038;8.372;2022-09-27T00:20:05;10.40;99.90
12434;DHT22;6281;49.038;8.372;2022-09-27T00:22:40;10.40;99.90
12434;DHT22;6281;49.038;8.372;2022-09-27T00:28:17;10.30;99.90
12434;DHT22;6281;49.038;8.372;2022-09-27T00:30:46;10.30;99.90
12434;DHT22;6281;49.038;8.372;2022-09-27T00:33:13;10.30;99.90
12434;DHT22;6281;49.038;8.372;2022-09-27T00:35:49;10.30;99.90
12434;DHT22;6281;49.038;8.372;2022-09-27T00:38:25;10.30;99.90
12434;DHT22;6281;49.038;8.372;2022-09-27T00:40:54;10.40;99.90
12434;DHT22;6281;49.038;8.372;2022-09-27T00:43:23;10.30;99.90
12434;DHT22;6281;49.038;8.372;2022-09-27T00:45:52;10.40;99.90
12434;DHT22;6281;49.038;8.372;2022-09-27T00:48:25;10.50;99.90
12434;DHT22;6281;49.038;8.372;2022-09-27T00:50:56;10.50;99.90
12434;DHT22;6281;49.038;8.372;2022-09-27T00:53:28;10.60;99.90
12434;DHT22;6281;49.038;8.372;2022-09-27T00:55:59;10.50;99.90
12434;DHT22;6281;49.038;8.372;2022-09-27T00:58:29;10.50;99.90
12434;DHT22;6281;49.038;8.372;2022-09-27T01:01:01;10.60;99.90
12434;DHT22;6281;49.038;8.372;2022-09-27T01:03:35;10.60;99.90
12434;DHT22;6281;49.038;8.372;2022-09-27T01:06:07;10.60;99.90
12434;DHT22;6281;49.038;8.372;2022-09-27T01:08:53;10.50;99.90
12434;DHT22;6281;49.038;8.372;2022-09-27T01:14:59;10.60;99.90
12434;DHT22;6281;49.038;8.372;2022-09-27T01:34:46;10.50;99.90
12434;DHT22;6281;49.038;8.372;2022-09-27T01:37:24;10.60;99.90
12434;DHT22;6281;49.038;8.372;2022-09-27T01:45:56;10.40;99.90
12434;DHT22;6281;49.038;8.372;2022-09-27T01:48:29;10.40;99.90
12434;DHT22;6281;49.038;8.372;2022-09-27T01:51:08;10.40;99.90
12434;DHT22;6281;49.038;8.372;2022-09-27T01:53:39;10.40;99.90
12434;DHT22;6281;49.038;8.372;2022-09-27T01:56:21;10.30;99.90
12434;DHT22;6281;49.038;8.372;2022-09-27T01:58:54;10.30;99.90
12434;DHT22;6281;49.038;8.372;2022-09-27T02:01:26;10.30;99.90
12434;DHT22;6281;49.038;8.372;2022-09-27T02:03:59;10.40;99.90
12434;DHT22;6281;49.038;8.372;2022-09-27T02:06:32;10.40;99.90
12434;DHT22;6281;49.038;8.372;2022-09-27T02:09:08;10.50;99.90
12434;DHT22;6281;49.038;8.372;2022-09-27T02:11:40;10.50;99.90
12434;DHT22;6281;49.038;8.372;2022-09-27T02:14:12;10.40;99.90
12434;DHT22;6281;49.038;8.372;2022-09-27T02:16:50;10.40;99.90
12434;DHT22;6281;49.038;8.372;2022-09-27T02:26:19;10.40;99.90
12434;DHT22;6281;49.038;8.372;2022-09-27T02:29:33;10.30;99.90
12434;DHT22;6281;49.038;8.372;2022-09-27T02:32:27;10.30;99.90
12434;DHT22;6281;49.038;8.372;2022-09-27T02:35:37;10.30;99.90
12434;DHT22;6281;49.038;8.372;2022-09-27T02:38:53;10.40;99.90
12434;DHT22;6281;49.038;8.372;2022-09-27T02:42:06;10.50;99.90
12434;DHT22;6281;49.038;8.372;2022-09-27T02:45:00;10.40;99.90
12434;DHT22;6281;49.038;8.372;2022-09-27T02:51:24;10.40;99.90
12434;DHT22;6281;49.038;8.372;2022-09-27T02:54:34;10.50;99.90
12434;DHT22;6281;49.038;8.372;2022-09-27T02:57:50;10.50;99.90
12434;DHT22;6281;49.038;8.372;2022-09-27T03:01:03;10.40;99.90
12434;DHT22;6281;49.038;8.372;2022-09-27T03:05:19;10.50;99.90
12434;DHT22;6281;49.038;8.372;2022-09-27T03:06:59;10.50;99.90
12434;DHT22;6281;49.038;8.372;2022-09-27T03:09:51;10.40;99.90
12434;DHT22;6281;49.038;8.372;2022-09-27T03:12:41;10.40;99.90
12434;DHT22;6281;49.038;8.372;2022-09-27T03:15:30;10.50;99.90
12434;DHT22;6281;49.038;8.372;2022-09-27T03:18:13;10.40;99.90
12434;DHT22;6281;49.038;8.372;2022-09-27T03:20:45;10.40;99.90
12434;DHT22;6281;49.038;8.372;2022-09-27T03:23:28;10.40;99.90
12434;DHT22;6281;49.038;8.372;2022-09-27T03:26:23;10.40;99.90
12434;DHT22;6281;49.038;8.372;2022-09-27T03:29:06;10.40;99.90
12434;DHT22;6281;49.038;8.372;2022-09-27T03:32:05;10.40;99.90
12434;DHT22;6281;49.038;8.372;2022-09-27T03:34:57;10.40;99.90
12434;DHT22;6281;49.038;8.372;2022-09-27T03:37:45;10.30;99.90
12434;DHT22;6281;49.038;8.372;2022-09-27T03:40:32;10.50;99.90
12434;DHT22;6281;49.038;8.372;2022-09-27T03:43:13;10.40;99.90
12434;DHT22;6281;49.038;8.372;2022-09-27T03:45:59;10.40;99.90
12434;DHT22;6281;49.038;8.372;2022-09-27T03:48:55;10.30;99.90
12434;DHT22;6281;49.038;8.372;2022-09-27T03:51:43;10.30;99.90
12434;DHT22;6281;49.038;8.372;2022-09-27T03:57:20;10.30;99.90
12434;DHT22;6281;49.038;8.372;2022-09-27T03:59:49;10.30;99.90
12434;DHT22;6281;49.038;8.372;2022-09-27T04:02:50;10.30;99.90
12434;DHT22;6281;49.038;8.372;2022-09-27T04:05:38;10.30;99.90
12434;DHT22;6281;49.038;8.372;2022-09-27T04:08:09;10.30;99.90
12434;DHT22;6281;49.038;8.372;2022-09-27T04:11:01;10.20;99.90
12434;DHT22;6281;49.038;8.372;2022-09-27T04:13:45;10.20;99.90
12434;DHT22;6281;49.038;8.372;2022-09-27T04:16:33;10.20;99.90
12434;DHT22;6281;49.038;8.372;2022-09-27T04:19:15;10.30;99.90
12434;DHT22;6281;49.038;8.372;2022-09-27T04:21:56;10.20;99.90
12434;DHT22;6281;49.038;8.372;2022-09-27T04:24:37;10.20;99.90
12434;DHT22;6281;49.038;8.372;2022-09-27T04:27:50;10.30;99.90
12434;DHT22;6281;49.038;8.372;2022-09-27T04:30:38;10.20;99.90
12434;DHT22;6281;49.038;8.372;2022-09-27T04:33:21;10.20;99.90
12434;DHT22;6281;49.038;8.372;2022-09-27T04:36:18;10.20;99.90
12434;DHT22;6281;49.038;8.372;2022-09-27T04:39:15;10.20;99.90
12434;DHT22;6281;49.038;8.372;2022-09-27T04:41:56;10.20;99.90
12434;DHT22;6281;49.038;8.372;2022-09-27T04:44:26;10.20;99.90
12434;DHT22;6281;49.038;8.372;2022-09-27T04:47:12;10.10;99.90
12434;DHT22;6281;49.038;8.372;2022-09-27T04:50:00;10.20;99.90
12434;DHT22;6281;49.038;8.372;2022-09-27T04:52:41;10.20;99.90
12434;DHT22;6281;49.038;8.372;2022-09-27T04:55:25;10.20;99.90
12434;DHT22;6281;49.038;8.372;2022-09-27T04:58:15;10.20;99.90
12434;DHT22;6281;49.038;8.372;2022-09-27T05:01:11;10.20;99.90
12434;DHT22;6281;49.038;8.372;2022-09-27T05:03:58;10.10;99.90
12434;DHT22;6281;49.038;8.372;2022-09-27T05:06:52;10.10;99.90
12434;DHT22;6281;49.038;8.372;2022-09-27T05:09:48;10.10;99.90
12434;DHT22;6281;49.038;8.372;2022-09-27T05:15:40;10.10;99.90
12434;DHT22;6281;49.038;8.372;2022-09-27T05:18:30;10.20;99.90
12434;DHT22;6281;49.038;8.372;2022-09-27T05:21:23;10.10;99.90
12434;DHT22;6281;49.038;8.372;2022-09-27T05:23:54;10.20;99.90
12434;DHT22;6281;49.038;8.372;2022-09-27T05:26:32;10.20;99.90
12434;DHT22;6281;49.038;8.372;2022-09-27T05:29:09;10.20;99.90
12434;DHT22;6281;49.038;8.372;2022-09-27T05:31:45;10.20;99.90
12434;DHT22;6281;49.038;8.372;2022-09-27T05:34:27;10.20;99.90
12434;DHT22;6281;49.038;8.372;2022-09-27T05:37:08;10.30;99.90
12434;DHT22;6281;49.038;8.372;2022-09-27T05:39:44;10.20;99.90
12434;DHT22;6281;49.038;8.372;2022-09-27T05:42:33;10.20;99.90
12434;DHT22;6281;49.038;8.372;2022-09-27T05:45:07;10.20;99.90
12434;DHT22;6281;49.038;8.372;2022-09-27T05:47:41;10.30;99.90
12434;DHT22;6281;49.038;8.372;2022-09-27T05:50:17;10.10;99.90
12434;DHT22;6281;49.038;8.372;2022-09-27T05:53:04;10.10;99.90
12434;DHT22;6281;49.038;8.372;2022-09-27T05:56:07;10.10;99.90
12434;DHT22;6281;49.038;8.372;2022-09-27T05:58:46;10.10;99.90
12434;DHT22;6281;49.038;8.372;2022-09-27T06:01:22;10.10;99.90
12434;DHT22;6281;49.038;8.372;2022-09-27T06:04:05;10.10;99.90
12434;DHT22;6281;49.038;8.372;2022-09-27T06:10:06;10.10;99.90
12434;DHT22;6281;49.038;8.372;2022-09-27T06:13:12;10.00;99.90
12434;DHT22;6281;49.038;8.372;2022-09-27T06:15:48;10.00;99.90
12434;DHT22;6281;49.038;8.372;2022-09-27T06:18:20;10.00;99.90
12434;DHT22;6281;49.038;8.372;2022-09-27T06:24:46;10.00;99.90
12434;DHT22;6281;49.038;8.372;2022-09-27T06:27:26;9.80;99.90
12434;DHT22;6281;49.038;8.372;2022-09-27T06:30:07;9.90;99.90
12434;DHT22;6281;49.038;8.372;2022-09-27T06:33:05;9.90;99.90
12434;DHT22;6281;49.038;8.372;2022-09-27T06:35:43;9.90;99.90
12434;DHT22;6281;49.038;8.372;2022-09-27T06:41:10;9.90;99.90
12434;DHT22;6281;49.038;8.372;2022-09-27T06:43:49;9.90;99.90
12434;DHT22;6281;49.038;8.372;2022-09-27T06:46:23;9.90;99.90
12434;DHT22;6281;49.038;8.372;2022-09-27T06:48:57;9.80;99.90
12434;DHT22;6281;49.038;8.372;2022-09-27T06:51:26;9.90;99.90
12434;DHT22;6281;49.038;8.372;2022-09-27T06:53:55;9.80;99.90
12434;DHT22;6281;49.038;8.372;2022-09-27T06:56:29;9.90;99.90
12434;DHT22;6281;49.038;8.372;2022-09-27T06:59:01;9.90;99.90
12434;DHT22;6281;49.038;8.372;2022-09-27T07:01:46;9.90;99.90
12434;DHT22;6281;49.038;8.372;2022-09-27T07:04:19;9.90;99.90
12434;DHT22;6281;49.038;8.372;2022-09-27T07:06:52;9.90;99.90
12434;DHT22;6281;49.038;8.372;2022-09-27T07:09:19;9.90;99.90
12434;DHT22;6281;49.038;8.372;2022-09-27T07:11:48;10.00;99.90
12434;DHT22;6281;49.038;8.372;2022-09-27T07:14:15;10.00;99.90
12434;DHT22;6281;49.038;8.372;2022-09-27T07:16:44;10.10;99.90
12434;DHT22;6281;49.038;8.372;2022-09-27T07:19:14;10.10;99.90
12434;DHT22;6281;49.038;8.372;2022-09-27T07:21:42;10.00;99.90
12434;DHT22;6281;49.038;8.372;2022-09-27T07:24:11;10.10;99.90
12434;DHT22;6281;49.038;8.372;2022-09-27T07:26:38;10.20;99.90
12434;DHT22;6281;49.038;8.372;2022-09-27T07:29:07;10.20;99.90
12434;DHT22;6281;49.038;8.372;2022-09-27T07:31:35;10.20;99.90
12434;DHT22;6281;49.038;8.372;2022-09-27T07:34:02;10.20;99.90
12434;DHT22;6281;49.038;8.372;2022-09-27T07:36:29;10.20;99.90
12434;DHT22;6281;49.038;8.372;2022-09-27T07:38:58;10.30;99.90
12434;DHT22;6281;49.038;8.372;2022-09-27T07:41:25;10.30;99.90
12434;DHT22;6281;49.038;8.372;2022-09-27T07:43:52;10.30;99.90
12434;DHT22;6281;49.038;8.372;2022-09-27T07:46:20;10.30;99.90
12434;DHT22;6281;49.038;8.372;2022-09-27T07:48:49;10.30;99.90
12434;DHT22;6281;49.038;8.372;2022-09-27T07:51:16;10.40;99.90
12434;DHT22;6281;49.038;8.372;2022-09-27T07:53:43;10.30;99.90
12434;DHT22;6281;49.038;8.372;2022-09-27T07:56:10;10.30;99.90
12434;DHT22;6281;49.038;8.372;2022-09-27T07:58:37;10.20;99.90
12434;DHT22;6281;49.038;8.372;2022-09-27T08:01:05;10.20;99.90
12434;DHT22;6281;49.038;8.372;2022-09-27T08:03:33;10.20;99.90
12434;DHT22;6281;49.038;8.372;2022-09-27T08:06:01;10.30;99.90
12434;DHT22;6281;49.038;8.372;2022-09-27T08:08:29;10.20;99.90
12434;DHT22;6281;49.038;8.372;2022-09-27T08:10:56;10.30;99.90
12434;DHT22;6281;49.038;8.372;2022-09-27T08:13:23;10.40;99.90
12434;DHT22;6281;49.038;8.372;2022-09-27T08:15:50;10.40;99.90
12434;DHT22;6281;49.038;8.372;2022-09-27T08:18:18;10.50;99.90
12434;DHT22;6281;49.038;8.372;2022-09-27T08:20:48;10.50;99.90
12434;DHT22;6281;49.038;8.372;2022-09-27T08:23:15;10.50;99.90
12434;DHT22;6281;49.038;8.372;2022-09-27T08:25:41;10.40;99.90
12434;DHT22;6281;49.038;8.372;2022-09-27T08:28:09;10.40;99.90
12434;DHT22;6281;49.038;8.372;2022-09-27T08:30:36;10.50;99.90
12434;DHT22;6281;49.038;8.372;2022-09-27T08:33:03;10.70;99.90
12434;DHT22;6281;49.038;8.372;2022-09-27T08:35:31;10.70;99.90
12434;DHT22;6281;49.038;8.372;2022-09-27T08:38:01;10.60;99.90
12434;DHT22;6281;49.038;8.372;2022-09-27T08:40:36;10.80;99.90
12434;DHT22;6281;49.038;8.372;2022-09-27T08:43:14;10.70;99.90
12434;DHT22;6281;49.038;8.372;2022-09-27T08:45:54;10.70;99.90
12434;DHT22;6281;49.038;8.372;2022-09-27T08:48:26;10.70;99.90
12434;DHT22;6281;49.038;8.372;2022-09-27T08:50:54;10.80;99.90
12434;DHT22;6281;49.038;8.372;2022-09-27T08:53:26;10.90;99.90
12434;DHT22;6281;49.038;8.372;2022-09-27T08:55:57;11.00;99.90
12434;DHT22;6281;49.038;8.372;2022-09-27T08:58:26;11.10;99.90
12434;DHT22;6281;49.038;8.372;2022-09-27T09:00:55;11.20;99.90
12434;DHT22;6281;49.038;8.372;2022-09-27T09:03:26;11.40;99.90
12434;DHT22;6281;49.038;8.372;2022-09-27T09:06:06;11.30;99.90
12434;DHT22;6281;49.038;8.372;2022-09-27T09:08:42;11.20;99.90
12434;DHT22;6281;49.038;8.372;2022-09-27T09:11:20;11.10;99.90
12434;DHT22;6281;49.038;8.372;2022-09-27T09:14:32;11.10;99.90
12434;DHT22;6281;49.038;8.372;2022-09-27T09:17:09;11.00;99.90
12434;DHT22;6281;49.038;8.372;2022-09-27T09:19:50;11.20;99.90
12434;DHT22;6281;49.038;8.372;2022-09-27T09:25:34;11.40;99.90
12434;DHT22;6281;49.038;8.372;2022-09-27T09:28:16;11.50;99.90
12434;DHT22;6281;49.038;8.372;2022-09-27T09:30:54;11.60;99.90
12434;DHT22;6281;49.038;8.372;2022-09-27T09:33:37;11.70;99.90
12434;DHT22;6281;49.038;8.372;2022-09-27T09:39:27;12.00;99.90
12434;DHT22;6281;49.038;8.372;2022-09-27T09:42:27;11.80;99.90
12434;DHT22;6281;49.038;8.372;2022-09-27T09:45:14;11.60;99.90
12434;DHT22;6281;49.038;8.372;2022-09-27T09:47:46;11.40;99.90
12434;DHT22;6281;49.038;8.372;2022-09-27T09:50:27;11.10;99.90
12434;DHT22;6281;49.038;8.372;2022-09-27T09:53:09;10.70;99.90
12434;DHT22;6281;49.038;8.372;2022-09-27T10:06:46;10.30;99.90
12434;DHT22;6281;49.038;8.372;2022-09-27T10:13:28;10.30;99.90
12434;DHT22;6281;49.038;8.372;2022-09-27T10:16:28;10.40;99.90
12434;DHT22;6281;49.038;8.372;2022-09-27T10:29:19;10.40;99.90
12434;DHT22;6281;49.038;8.372;2022-09-27T10:31:50;10.30;99.90
12434;DHT22;6281;49.038;8.372;2022-09-27T10:34:29;10.20;99.90
12434;DHT22;6281;49.038;8.372;2022-09-27T10:37:15;10.20;99.90
12434;DHT22;6281;49.038;8.372;2022-09-27T10:42:39;9.80;99.90
12434;DHT22;6281;49.038;8.372;2022-09-27T10:45:30;9.30;99.90
12434;DHT22;6281;49.038;8.372;2022-09-27T10:47:59;8.90;99.90
12434;DHT22;6281;49.038;8.372;2022-09-27T10:50:29;8.50;99.90
12434;DHT22;6281;49.038;8.372;2022-09-27T10:53:02;8.80;99.90
12434;DHT22;6281;49.038;8.372;2022-09-27T10:55:48;8.70;99.90
12434;DHT22;6281;49.038;8.372;2022-09-27T10:58:51;8.90;99.90
12434;DHT22;6281;49.038;8.372;2022-09-27T11:01:28;9.10;99.90
12434;DHT22;6281;49.038;8.372;2022-09-27T11:04:05;9.10;99.90
12434;DHT22;6281;49.038;8.372;2022-09-27T11:06:35;9.10;99.90
12434;DHT22;6281;49.038;8.372;2022-09-27T11:09:19;9.00;99.90
12434;DHT22;6281;49.038;8.372;2022-09-27T11:11:49;9.00;99.90
12434;DHT22;6281;49.038;8.372;2022-09-27T11:14:25;9.10;99.90
12434;DHT22;6281;49.038;8.372;2022-09-27T11:17:09;9.10;99.90
12434;DHT22;6281;49.038;8.372;2022-09-27T11:19:49;9.10;99.90
12434;DHT22;6281;49.038;8.372;2022-09-27T11:22:40;9.20;99.90
12434;DHT22;6281;49.038;8.372;2022-09-27T11:25:29;9.20;99.90
12434;DHT22;6281;49.038;8.372;2022-09-27T11:28:12;9.10;99.90
12434;DHT22;6281;49.038;8.372;2022-09-27T11:31:25;9.20;99.90
12434;DHT22;6281;49.038;8.372;2022-09-27T11:54:46;11.30;99.90
12434;DHT22;6281;49.038;8.372;2022-09-27T11:58:10;12.70;99.90
12434;DHT22;6281;49.038;8.372;2022-09-27T12:01:20;11.50;99.90
12434;DHT22;6281;49.038;8.372;2022-09-27T12:04:25;12.50;99.90
12434;DHT22;6281;49.038;8.372;2022-09-27T12:06:59;13.10;99.90
12434;DHT22;6281;49.038;8.372;2022-09-27T12:09:33;13.50;99.90
12434;DHT22;6281;49.038;8.372;2022-09-27T12:12:08;13.20;99.90
12434;DHT22;6281;49.038;8.372;2022-09-27T12:14:41;13.20;99.90
12434;DHT22;6281;49.038;8.372;2022-09-27T12:19:04;12.70;99.90
12434;DHT22;6281;49.038;8.372;2022-09-27T12:21:10;13.20;99.90
12434;DHT22;6281;49.038;8.372;2022-09-27T12:24:26;13.10;99.90
12434;DHT22;6281;49.038;8.372;2022-09-27T12:27:45;14.20;99.90
12434;DHT22;6281;49.038;8.372;2022-09-27T12:30:14;14.00;99.90
12434;DHT22;6281;49.038;8.372;2022-09-27T12:32:50;13.00;99.90
12434;DHT22;6281;49.038;8.372;2022-09-27T12:35:20;12.90;99.90
12434;DHT22;6281;49.038;8.372;2022-09-27T12:37:52;13.00;99.90
12434;DHT22;6281;49.038;8.372;2022-09-27T12:40:25;13.30;99.90
12434;DHT22;6281;49.038;8.372;2022-09-27T12:43:00;12.80;99.90
12434;DHT22;6281;49.038;8.372;2022-09-27T12:45:38;12.40;99.90
12434;DHT22;6281;49.038;8.372;2022-09-27T12:48:12;12.70;99.90
12434;DHT22;6281;49.038;8.372;2022-09-27T12:50:43;12.40;99.90
12434;DHT22;6281;49.038;8.372;2022-09-27T12:53:15;12.50;99.90
12434;DHT22;6281;49.038;8.372;2022-09-27T12:56:21;12.20;99.90
12434;DHT22;6281;49.038;8.372;2022-09-27T13:05:50;11.50;99.90
12434;DHT22;6281;49.038;8.372;2022-09-27T13:08:34;11.80;99.90
12434;DHT22;6281;49.038;8.372;2022-09-27T13:11:10;11.80;99.90
12434;DHT22;6281;49.038;8.372;2022-09-27T13:13:41;11.80;99.90
12434;DHT22;6281;49.038;8.372;2022-09-27T13:16:10;11.70;99.90
12434;DHT22;6281;49.038;8.372;2022-09-27T13:18:53;11.80;99.90
12434;DHT22;6281;49.038;8.372;2022-09-27T13:24:44;11.50;99.90
12434;DHT22;6281;49.038;8.372;2022-09-27T13:27:34;11.60;99.90
12434;DHT22;6281;49.038;8.372;2022-09-27T13:33:42;11.80;99.90
12434;DHT22;6281;49.038;8.372;2022-09-27T13:36:28;11.60;99.90
12434;DHT22;6281;49.038;8.372;2022-09-27T13:39:16;11.50;99.90
12434;DHT22;6281;49.038;8.372;2022-09-27T13:42:02;11.50;99.90
12434;DHT22;6281;49.038;8.372;2022-09-27T13:44:42;11.40;99.90
12434;DHT22;6281;49.038;8.372;2022-09-27T13:47:25;11.30;99.90
12434;DHT22;6281;49.038;8.372;2022-09-27T13:50:00;11.40;99.90
12434;DHT22;6281;49.038;8.372;2022-09-27T13:52:32;11.10;99.90
12434;DHT22;6281;49.038;8.372;2022-09-27T13:55:03;10.80;99.90
12434;DHT22;6281;49.038;8.372;2022-09-27T13:57:50;10.40;99.90
12434;DHT22;6281;49.038;8.372;2022-09-27T14:00:24;10.60;99.90
12434;DHT22;6281;49.038;8.372;2022-09-27T14:03:01;10.60;99.90
12434;DHT22;6281;49.038;8.372;2022-09-27T14:05:41;10.60;99.90
12434;DHT22;6281;49.038;8.372;2022-09-27T14:08:22;10.70;99.90
12434;DHT22;6281;49.038;8.372;2022-09-27T14:10:53;10.60;99.90
12434;DHT22;6281;49.038;8.372;2022-09-27T14:13:23;10.80;99.90
12434;DHT22;6281;49.038;8.372;2022-09-27T14:15:51;10.50;99.90
12434;DHT22;6281;49.038;8.372;2022-09-27T14:18:19;10.50;99.90
12434;DHT22;6281;49.038;8.372;2022-09-27T14:20:50;10.70;99.90
12434;DHT22;6281;49.038;8.372;2022-09-27T14:23:21;11.10;99.90
12434;DHT22;6281;49.038;8.372;2022-09-27T14:25:50;11.50;99.90
12434;DHT22;6281;49.038;8.372;2022-09-27T14:28:19;11.70;99.90
12434;DHT22;6281;49.038;8.372;2022-09-27T14:30:47;12.10;99.90
12434;DHT22;6281;49.038;8.372;2022-09-27T14:33:28;11.90;99.90
12434;DHT22;6281;49.038;8.372;2022-09-27T14:35:59;11.80;99.90
12434;DHT22;6281;49.038;8.372;2022-09-27T14:38:43;11.60;99.90
12434;DHT22;6281;49.038;8.372;2022-09-27T14:41:13;11.40;99.90
12434;DHT22;6281;49.038;8.372;2022-09-27T14:43:43;11.60;99.90
12434;DHT22;6281;49.038;8.372;2022-09-27T14:46:24;11.30;99.90
12434;DHT22;6281;49.038;8.372;2022-09-27T14:48:52;11.40;99.90
12434;DHT22;6281;49.038;8.372;2022-09-27T14:51:27;11.20;99.90
12434;DHT22;6281;49.038;8.372;2022-09-27T14:53:56;11.30;99.90
12434;DHT22;6281;49.038;8.372;2022-09-27T14:56:27;11.40;99.90
12434;DHT22;6281;49.038;8.372;2022-09-27T14:59:00;11.60;99.90
12434;DHT22;6281;49.038;8.372;2022-09-27T15:01:28;12.40;99.90
12434;DHT22;6281;49.038;8.372;2022-09-27T15:04:01;12.40;99.90
12434;DHT22;6281;49.038;8.372;2022-09-27T15:06:30;12.50;99.90
12434;DHT22;6281;49.038;8.372;2022-09-27T15:08:57;12.70;99.90
12434;DHT22;6281;49.038;8.372;2022-09-27T15:11:25;12.80;99.90
12434;DHT22;6281;49.038;8.372;2022-09-27T15:13:54;12.60;99.90
12434;DHT22;6281;49.038;8.372;2022-09-27T15:16:23;12.20;99.90
12434;DHT22;6281;49.038;8.372;2022-09-27T15:18:58;12.20;99.90
12434;DHT22;6281;49.038;8.372;2022-09-27T15:21:31;12.20;99.90
12434;DHT22;6281;49.038;8.372;2022-09-27T15:23:59;11.80;99.90
12434;DHT22;6281;49.038;8.372;2022-09-27T15:26:34;11.90;99.90
12434;DHT22;6281;49.038;8.372;2022-09-27T15:29:02;11.80;99.90
12434;DHT22;6281;49.038;8.372;2022-09-27T15:31:32;11.60;99.90
12434;DHT22;6281;49.038;8.372;2022-09-27T15:34:00;11.40;99.90
12434;DHT22;6281;49.038;8.372;2022-09-27T15:36:53;11.70;99.90
12434;DHT22;6281;49.038;8.372;2022-09-27T15:39:27;12.10;99.90
12434;DHT22;6281;49.038;8.372;2022-09-27T15:42:04;12.20;99.90
12434;DHT22;6281;49.038;8.372;2022-09-27T15:44:43;13.00;99.90
12434;DHT22;6281;49.038;8.372;2022-09-27T15:47:45;12.40;99.90
12434;DHT22;6281;49.038;8.372;2022-09-27T15:50:32;12.80;99.90
12434;DHT22;6281;49.038;8.372;2022-09-27T15:53:02;12.20;99.90
12434;DHT22;6281;49.038;8.372;2022-09-27T15:55:33;11.90;99.90
12434;DHT22;6281;49.038;8.372;2022-09-27T15:58:03;11.70;99.90
12434;DHT22;6281;49.038;8.372;2022-09-27T16:00:33;11.90;99.90
12434;DHT22;6281;49.038;8.372;2022-09-27T16:03:00;11.70;99.90
12434;DHT22;6281;49.038;8.372;2022-09-27T16:05:28;11.60;99.90
12434;DHT22;6281;49.038;8.372;2022-09-27T16:07:57;11.70;99.90
12434;DHT22;6281;49.038;8.372;2022-09-27T16:10:33;11.60;99.90
12434;DHT22;6281;49.038;8.372;2022-09-27T16:13:00;11.60;99.90
12434;DHT22;6281;49.038;8.372;2022-09-27T16:15:27;11.40;99.90
12434;DHT22;6281;49.038;8.372;2022-09-27T16:17:54;11.40;99.90
12434;DHT22;6281;49.038;8.372;2022-09-27T16:20:24;11.30;99.90
12434;DHT22;6281;49.038;8.372;2022-09-27T16:22:53;11.30;99.90
12434;DHT22;6281;49.038;8.372;2022-09-27T16:25:21;11.20;99.90
12434;DHT22;6281;49.038;8.372;2022-09-27T16:27:50;11.30;99.90
12434;DHT22;6281;49.038;8.372;2022-09-27T16:30:18;11.20;99.90
12434;DHT22;6281;49.038;8.372;2022-09-27T16:32:46;11.30;99.90
12434;DHT22;6281;49.038;8.372;2022-09-27T16:35:15;11.20;99.90
12434;DHT22;6281;49.038;8.372;2022-09-27T16:37:43;11.20;99.90
12434;DHT22;6281;49.038;8.372;2022-09-27T16:40:11;11.20;99.90
12434;DHT22;6281;49.038;8.372;2022-09-27T16:42:38;11.20;99.90
12434;DHT22;6281;49.038;8.372;2022-09-27T16:45:07;11.20;99.90
12434;DHT22;6281;49.038;8.372;2022-09-27T16:47:35;11.00;99.90
12434;DHT22;6281;49.038;8.372;2022-09-27T16:50:02;11.10;99.90
12434;DHT22;6281;49.038;8.372;2022-09-27T16:52:46;11.10;99.90
12434;DHT22;6281;49.038;8.372;2022-09-27T16:55:15;11.10;99.90
12434;DHT22;6281;49.038;8.372;2022-09-27T16:57:45;11.10;99.90
12434;DHT22;6281;49.038;8.372;2022-09-27T17:00:14;11.00;99.90
12434;DHT22;6281;49.038;8.372;2022-09-27T17:02:41;11.10;99.90
12434;DHT22;6281;49.038;8.372;2022-09-27T17:05:11;11.10;99.90
12434;DHT22;6281;49.038;8.372;2022-09-27T17:07:38;11.00;99.90
12434;DHT22;6281;49.038;8.372;2022-09-27T17:10:06;11.00;99.90
12434;DHT22;6281;49.038;8.372;2022-09-27T17:12:33;11.00;99.90
12434;DHT22;6281;49.038;8.372;2022-09-27T17:15:00;10.90;99.90
12434;DHT22;6281;49.038;8.372;2022-09-27T17:17:29;10.90;99.90
12434;DHT22;6281;49.038;8.372;2022-09-27T17:19:56;10.90;99.90
12434;DHT22;6281;49.038;8.372;2022-09-27T17:22:23;10.80;99.90
12434;DHT22;6281;49.038;8.372;2022-09-27T17:24:50;10.80;99.90
12434;DHT22;6281;49.038;8.372;2022-09-27T17:27:20;10.80;99.90
12434;DHT22;6281;49.038;8.372;2022-09-27T17:29:50;10.70;99.90
12434;DHT22;6281;49.038;8.372;2022-09-27T17:32:20;10.70;99.90
12434;DHT22;6281;49.038;8.372;2022-09-27T17:34:53;10.70;99.90
12434;DHT22;6281;49.038;8.372;2022-09-27T17:37:20;10.60;99.90
12434;DHT22;6281;49.038;8.372;2022-09-27T17:39:47;10.50;99.90
12434;DHT22;6281;49.038;8.372;2022-09-27T17:42:14;10.50;99.90
12434;DHT22;6281;49.038;8.372;2022-09-27T17:44:43;10.40;99.90
12434;DHT22;6281;49.038;8.372;2022-09-27T17:47:11;10.30;99.90
12434;DHT22;6281;49.038;8.372;2022-09-27T17:49:56;10.20;99.90
12434;DHT22;6281;49.038;8.372;2022-09-27T17:52:40;10.10;99.90
12434;DHT22;6281;49.038;8.372;2022-09-27T17:55:08;10.10;99.90
12434;DHT22;6281;49.038;8.372;2022-09-27T17:57:35;10.10;99.90
12434;DHT22;6281;49.038;8.372;2022-09-27T18:00:04;10.10;99.90
12434;DHT22;6281;49.038;8.372;2022-09-27T18:02:31;9.90;99.90
12434;DHT22;6281;49.038;8.372;2022-09-27T18:05:00;9.90;99.90
12434;DHT22;6281;49.038;8.372;2022-09-27T18:07:28;9.90;99.90
12434;DHT22;6281;49.038;8.372;2022-09-27T18:09:55;9.90;99.90
12434;DHT22;6281;49.038;8.372;2022-09-27T18:12:22;10.00;99.90
12434;DHT22;6281;49.038;8.372;2022-09-27T18:14:56;9.90;99.90
12434;DHT22;6281;49.038;8.372;2022-09-27T18:17:23;9.90;99.90
12434;DHT22;6281;49.038;8.372;2022-09-27T18:19:51;9.90;99.90
12434;DHT22;6281;49.038;8.372;2022-09-27T18:22:20;9.90;99.90
12434;DHT22;6281;49.038;8.372;2022-09-27T18:24:48;9.80;99.90
12434;DHT22;6281;49.038;8.372;2022-09-27T18:27:15;9.80;99.90
12434;DHT22;6281;49.038;8.372;2022-09-27T18:29:44;9.80;99.90
12434;DHT22;6281;49.038;8.372;2022-09-27T18:32:11;10.00;99.90
12434;DHT22;6281;49.038;8.372;2022-09-27T18:34:38;9.90;99.90
12434;DHT22;6281;49.038;8.372;2022-09-27T18:37:05;9.90;99.90
12434;DHT22;6281;49.038;8.372;2022-09-27T18:39:34;9.80;99.90
12434;DHT22;6281;49.038;8.372;2022-09-27T18:42:01;9.90;99.90
12434;DHT22;6281;49.038;8.372;2022-09-27T18:44:28;9.80;99.90
12434;DHT22;6281;49.038;8.372;2022-09-27T18:46:55;9.70;99.90
12434;DHT22;6281;49.038;8.372;2022-09-27T18:49:23;9.80;99.90
12434;DHT22;6281;49.038;8.372;2022-09-27T18:51:52;9.70;99.90
12434;DHT22;6281;49.038;8.372;2022-09-27T18:54:21;9.60;99.90
12434;DHT22;6281;49.038;8.372;2022-09-27T18:56:50;9.60;99.90